PWSweather.com
Personal Weather Stations
Station Observations
KVAGLENALL
West Henrico, Glen Allen, VA 23060-6503

West HenricoGlen Allen, VA 23060-6503

Lat: 37.6554, Lon: -77.5693

Elevation: 273

Station Type: Davis Vantage Pro II

www.glenallenweather.com

High Low Average
Temperature 72.4°F22.4°C 58.1°F14.5°C 65.6°F18.7°C
Dew Point 65.9°F18.8°C 55.4°F13.0°C 60.5°F15.8°C
Winds 18.0 mph 29.0 kmh 1.0 mph 1.6 kmh 6.0 mph SSW9.7 kmh SSW
Wind Gusts 22.2 mph35.7 kmh 3.0 mph4.8 kmh 11.0 mph17.7 kmh
Humidity 93% 71% 84%
Pressure 29.99 in1015.6 mb 29.72 in1006.4 mb -
Precipitation 0.00 in0.0 mm - -
Hour Temp Dew Point Humidity Winds Wind Gusts Pressure Precip Precip Rate Daily Precip Total
12:00 AM 61.0°F16.1°C 57.1°F13.9°C 87% 7.0 mph SSW11.3 kmh SSW 9.1 mph14.6 kmh 29.99 in1015.6 mb 0.00 in0.0 mm 0.00 in0.0 mm 0.00 in0.0 mm
12:15 AM 60.9°F16.1°C 57.0°F13.9°C 87% 7.0 mph SSW11.3 kmh SSW 9.1 mph14.6 kmh 29.99 in1015.6 mb 0.00 in0.0 mm 0.00 in0.0 mm 0.00 in0.0 mm
12:30 AM 60.6°F15.9°C 56.7°F13.7°C 87% 4.0 mph SSW6.4 kmh SSW 7.1 mph11.4 kmh 29.99 in1015.6 mb 0.00 in0.0 mm 0.00 in0.0 mm 0.00 in0.0 mm
12:45 AM 60.1°F15.6°C 56.5°F13.6°C 88% 5.0 mph SW8.0 kmh SW 8.1 mph13.0 kmh 29.98 in1015.2 mb 0.00 in0.0 mm 0.00 in0.0 mm 0.00 in0.0 mm
01:00 AM 60.0°F15.6°C 56.4°F13.6°C 88% 2.0 mph SSW3.2 kmh SSW 7.1 mph11.4 kmh 29.99 in1015.6 mb 0.00 in0.0 mm 0.00 in0.0 mm 0.00 in0.0 mm
01:15 AM 59.7°F15.4°C 56.1°F13.4°C 88% 5.0 mph SSW8.0 kmh SSW 6.1 mph9.8 kmh 29.98 in1015.2 mb 0.00 in0.0 mm 0.00 in0.0 mm 0.00 in0.0 mm
01:30 AM 59.3°F15.2°C 56.1°F13.4°C 89% 7.0 mph SSW11.3 kmh SSW 8.1 mph13.0 kmh 29.98 in1015.2 mb 0.00 in0.0 mm 0.00 in0.0 mm 0.00 in0.0 mm
01:45 AM 59.1°F15.1°C 55.9°F13.3°C 89% 4.0 mph SW6.4 kmh SW 8.1 mph13.0 kmh 29.98 in1015.2 mb 0.00 in0.0 mm 0.00 in0.0 mm 0.00 in0.0 mm
02:00 AM 59.0°F15.0°C 55.8°F13.2°C 89% 3.0 mph SSW4.8 kmh SSW 5.1 mph8.2 kmh 29.97 in1014.9 mb 0.00 in0.0 mm 0.00 in0.0 mm 0.00 in0.0 mm
02:15 AM 58.5°F14.7°C 55.6°F13.1°C 90% 3.0 mph SW4.8 kmh SW 3.0 mph4.8 kmh 29.97 in1014.9 mb 0.00 in0.0 mm 0.00 in0.0 mm 0.00 in0.0 mm
02:30 AM 58.1°F14.5°C 55.5°F13.1°C 91% 2.0 mph SSW3.2 kmh SSW 5.1 mph8.2 kmh 29.96 in1014.6 mb 0.00 in0.0 mm 0.00 in0.0 mm 0.00 in0.0 mm
02:45 AM 58.1°F14.5°C 55.5°F13.1°C 91% 3.0 mph SSW4.8 kmh SSW 5.1 mph8.2 kmh 29.96 in1014.6 mb 0.00 in0.0 mm 0.00 in0.0 mm 0.00 in0.0 mm
03:00 AM 58.3°F14.6°C 55.4°F13.0°C 90% 4.0 mph SSW6.4 kmh SSW 8.1 mph13.0 kmh 29.96 in1014.6 mb 0.00 in0.0 mm 0.00 in0.0 mm 0.00 in0.0 mm
03:15 AM 58.5°F14.7°C 55.6°F13.1°C 90% 2.0 mph SW3.2 kmh SW 7.1 mph11.4 kmh 29.96 in1014.6 mb 0.00 in0.0 mm 0.00 in0.0 mm 0.00 in0.0 mm
03:30 AM 58.8°F14.9°C 55.6°F13.1°C 89% 4.0 mph SSW6.4 kmh SSW 7.1 mph11.4 kmh 29.95 in1014.2 mb 0.00 in0.0 mm 0.00 in0.0 mm 0.00 in0.0 mm
03:45 AM 58.9°F14.9°C 55.7°F13.2°C 89% 3.0 mph SSW4.8 kmh SSW 8.1 mph13.0 kmh 29.95 in1014.2 mb 0.00 in0.0 mm 0.00 in0.0 mm 0.00 in0.0 mm
04:00 AM 59.1°F15.1°C 55.9°F13.3°C 89% 4.0 mph S6.4 kmh S 7.1 mph11.4 kmh 29.95 in1014.2 mb 0.00 in0.0 mm 0.00 in0.0 mm 0.00 in0.0 mm
04:15 AM 59.2°F15.1°C 56.0°F13.3°C 89% 6.0 mph S9.7 kmh S 7.1 mph11.4 kmh 29.95 in1014.2 mb 0.00 in0.0 mm 0.00 in0.0 mm 0.00 in0.0 mm
04:30 AM 59.4°F15.2°C 55.9°F13.3°C 88% 9.0 mph SW14.5 kmh SW 11.1 mph17.9 kmh 29.95 in1014.2 mb 0.00 in0.0 mm 0.00 in0.0 mm 0.00 in0.0 mm
04:45 AM 59.3°F15.2°C 55.8°F13.2°C 88% 5.0 mph SW8.0 kmh SW 9.1 mph14.6 kmh 29.95 in1014.2 mb 0.00 in0.0 mm 0.00 in0.0 mm 0.00 in0.0 mm
05:00 AM 59.1°F15.1°C 55.6°F13.1°C 88% 5.0 mph SW8.0 kmh SW 11.1 mph17.9 kmh 29.95 in1014.2 mb 0.00 in0.0 mm 0.00 in0.0 mm 0.00 in0.0 mm
05:15 AM 59.0°F15.0°C 55.8°F13.2°C 89% 7.0 mph SSW11.3 kmh SSW 10.1 mph16.3 kmh 29.96 in1014.6 mb 0.00 in0.0 mm 0.00 in0.0 mm 0.00 in0.0 mm
05:30 AM 59.0°F15.0°C 55.8°F13.2°C 89% 9.0 mph SSW14.5 kmh SSW 9.1 mph14.6 kmh 29.96 in1014.6 mb 0.00 in0.0 mm 0.00 in0.0 mm 0.00 in0.0 mm
05:45 AM 59.4°F15.2°C 56.2°F13.4°C 89% 8.0 mph SW12.9 kmh SW 9.1 mph14.6 kmh 29.95 in1014.2 mb 0.00 in0.0 mm 0.00 in0.0 mm 0.00 in0.0 mm
06:00 AM 59.6°F15.3°C 56.0°F13.3°C 88% 7.0 mph SSW11.3 kmh SSW 12.1 mph19.5 kmh 29.95 in1014.2 mb 0.00 in0.0 mm 0.00 in0.0 mm 0.00 in0.0 mm
06:15 AM 59.8°F15.4°C 56.2°F13.4°C 88% 6.0 mph S9.7 kmh S 11.1 mph17.9 kmh 29.95 in1014.2 mb 0.00 in0.0 mm 0.00 in0.0 mm 0.00 in0.0 mm
06:30 AM 59.9°F15.5°C 56.3°F13.5°C 88% 4.0 mph SSW6.4 kmh SSW 14.1 mph22.7 kmh 29.95 in1014.2 mb 0.00 in0.0 mm 0.00 in0.0 mm 0.00 in0.0 mm
06:45 AM 59.7°F15.4°C 56.5°F13.6°C 89% 7.0 mph SW11.3 kmh SW 10.1 mph16.3 kmh 29.95 in1014.2 mb 0.00 in0.0 mm 0.00 in0.0 mm 0.00 in0.0 mm
07:00 AM 59.7°F15.4°C 56.5°F13.6°C 89% 10.0 mph SW16.1 kmh SW 13.1 mph21.1 kmh 29.95 in1014.2 mb 0.00 in0.0 mm 0.00 in0.0 mm 0.00 in0.0 mm
07:15 AM 59.4°F15.2°C 56.2°F13.4°C 89% 10.0 mph SSW16.1 kmh SSW 10.1 mph16.3 kmh 29.95 in1014.2 mb 0.00 in0.0 mm 0.00 in0.0 mm 0.00 in0.0 mm
07:30 AM 59.1°F15.1°C 56.2°F13.4°C 90% 7.0 mph SSW11.3 kmh SSW 12.1 mph19.5 kmh 29.95 in1014.2 mb 0.00 in0.0 mm 0.00 in0.0 mm 0.00 in0.0 mm
07:45 AM 58.8°F14.9°C 56.2°F13.4°C 91% 10.0 mph SSW16.1 kmh SSW 13.1 mph21.1 kmh 29.95 in1014.2 mb 0.00 in0.0 mm 0.00 in0.0 mm 0.00 in0.0 mm
08:00 AM 58.7°F14.8°C 56.1°F13.4°C 91% 7.0 mph SSW11.3 kmh SSW 10.1 mph16.3 kmh 29.95 in1014.2 mb 0.00 in0.0 mm 0.00 in0.0 mm 0.00 in0.0 mm
08:15 AM 58.7°F14.8°C 56.1°F13.4°C 91% 7.0 mph SSW11.3 kmh SSW 8.1 mph13.0 kmh 29.95 in1014.2 mb 0.00 in0.0 mm 0.00 in0.0 mm 0.00 in0.0 mm
08:30 AM 58.8°F14.9°C 56.2°F13.4°C 91% 8.0 mph SSW12.9 kmh SSW 11.1 mph17.9 kmh 29.96 in1014.6 mb 0.00 in0.0 mm 0.00 in0.0 mm 0.00 in0.0 mm
08:45 AM 58.6°F14.8°C 56.3°F13.5°C 92% 6.0 mph S9.7 kmh S 8.1 mph13.0 kmh 29.96 in1014.6 mb 0.00 in0.0 mm 0.00 in0.0 mm 0.00 in0.0 mm
09:00 AM 58.7°F14.8°C 56.4°F13.6°C 92% 12.0 mph SSW19.3 kmh SSW 13.1 mph21.1 kmh 29.96 in1014.6 mb 0.00 in0.0 mm 0.00 in0.0 mm 0.00 in0.0 mm
09:15 AM 60.8°F16.0°C 57.9°F14.4°C 90% 10.0 mph SW16.1 kmh SW 12.1 mph19.5 kmh 29.96 in1014.6 mb 0.00 in0.0 mm 0.00 in0.0 mm 0.00 in0.0 mm
09:30 AM 62.7°F17.1°C 59.1°F15.1°C 88% 6.0 mph SW9.7 kmh SW 14.1 mph22.7 kmh 29.96 in1014.6 mb 0.00 in0.0 mm 0.00 in0.0 mm 0.00 in0.0 mm
09:45 AM 63.8°F17.7°C 59.6°F15.3°C 86% 5.0 mph WSW8.0 kmh WSW 11.1 mph17.9 kmh 29.95 in1014.2 mb 0.00 in0.0 mm 0.00 in0.0 mm 0.00 in0.0 mm
10:00 AM 65.5°F18.6°C 61.2°F16.2°C 86% 2.0 mph SSW3.2 kmh SSW 8.1 mph13.0 kmh 29.95 in1014.2 mb 0.00 in0.0 mm 0.00 in0.0 mm 0.00 in0.0 mm
10:30 AM 67.7°F19.8°C 62.4°F16.9°C 83% 18.0 mph SW29.0 kmh SW 18.2 mph29.3 kmh 29.95 in1014.2 mb 0.00 in0.0 mm 0.00 in0.0 mm 0.00 in0.0 mm
10:45 AM 68.5°F20.3°C 62.1°F16.7°C 80% 9.0 mph SSW14.5 kmh SSW 20.2 mph32.5 kmh 29.95 in1014.2 mb 0.00 in0.0 mm 0.00 in0.0 mm 0.00 in0.0 mm
11:00 AM 69.6°F20.9°C 63.1°F17.3°C 80% 8.0 mph S12.9 kmh S 13.1 mph21.1 kmh 29.95 in1014.2 mb 0.00 in0.0 mm 0.00 in0.0 mm 0.00 in0.0 mm
11:15 AM 70.8°F21.6°C 63.6°F17.6°C 78% 7.0 mph WSW11.3 kmh WSW 15.1 mph24.3 kmh 29.95 in1014.2 mb 0.00 in0.0 mm 0.00 in0.0 mm 0.00 in0.0 mm
11:30 AM 70.7°F21.5°C 62.7°F17.1°C 76% 5.0 mph SW8.0 kmh SW 16.2 mph26.1 kmh 29.94 in1013.9 mb 0.00 in0.0 mm 0.00 in0.0 mm 0.00 in0.0 mm
11:45 AM 70.6°F21.4°C 62.6°F17.0°C 76% 4.0 mph SW6.4 kmh SW 11.1 mph17.9 kmh 29.94 in1013.9 mb 0.00 in0.0 mm 0.00 in0.0 mm 0.00 in0.0 mm
12:00 PM 70.7°F21.5°C 63.1°F17.3°C 77% 9.0 mph W14.5 kmh W 11.1 mph17.9 kmh 29.95 in1014.2 mb 0.00 in0.0 mm 0.00 in0.0 mm 0.00 in0.0 mm
12:15 PM 70.5°F21.4°C 62.9°F17.2°C 77% 3.0 mph S4.8 kmh S 9.1 mph14.6 kmh 29.95 in1014.2 mb 0.00 in0.0 mm 0.00 in0.0 mm 0.00 in0.0 mm
12:30 PM 68.8°F20.4°C 62.1°F16.7°C 79% 10.0 mph SW16.1 kmh SW 12.1 mph19.5 kmh 29.94 in1013.9 mb 0.00 in0.0 mm 0.00 in0.0 mm 0.00 in0.0 mm
12:45 PM 70.7°F21.5°C 62.7°F17.1°C 76% 12.0 mph SSW19.3 kmh SSW 16.2 mph26.1 kmh 29.94 in1013.9 mb 0.00 in0.0 mm 0.00 in0.0 mm 0.00 in0.0 mm
01:00 PM 70.3°F21.3°C 62.3°F16.8°C 76% 9.0 mph S14.5 kmh S 13.1 mph21.1 kmh 29.94 in1013.9 mb 0.00 in0.0 mm 0.00 in0.0 mm 0.00 in0.0 mm
01:15 PM 70.5°F21.4°C 61.4°F16.3°C 73% 9.0 mph SSW14.5 kmh SSW 20.2 mph32.5 kmh 29.94 in1013.9 mb 0.00 in0.0 mm 0.00 in0.0 mm 0.00 in0.0 mm
01:30 PM 70.8°F21.6°C 62.1°F16.7°C 74% 5.0 mph SW8.0 kmh SW 14.1 mph22.7 kmh 29.92 in1013.2 mb 0.00 in0.0 mm 0.00 in0.0 mm 0.00 in0.0 mm
01:45 PM 69.8°F21.0°C 61.5°F16.4°C 75% 9.0 mph SW14.5 kmh SW 11.1 mph17.9 kmh 29.92 in1013.2 mb 0.00 in0.0 mm 0.00 in0.0 mm 0.00 in0.0 mm
02:00 PM 71.4°F21.9°C 61.9°F16.6°C 72% 8.0 mph SSW12.9 kmh SSW 12.1 mph19.5 kmh 29.92 in1013.2 mb 0.00 in0.0 mm 0.00 in0.0 mm 0.00 in0.0 mm
02:15 PM 72.1°F22.3°C 62.6°F17.0°C 72% 8.0 mph SW12.9 kmh SW 16.2 mph26.1 kmh 29.92 in1013.2 mb 0.00 in0.0 mm 0.00 in0.0 mm 0.00 in0.0 mm
02:30 PM 71.6°F22.0°C 61.7°F16.5°C 71% 7.0 mph SW11.3 kmh SW 7.1 mph11.4 kmh 29.91 in1012.9 mb 0.00 in0.0 mm 0.00 in0.0 mm 0.00 in0.0 mm
02:45 PM 71.2°F21.8°C 61.7°F16.5°C 72% 5.0 mph SW8.0 kmh SW 13.1 mph21.1 kmh 29.91 in1012.9 mb 0.00 in0.0 mm 0.00 in0.0 mm 0.00 in0.0 mm
03:00 PM 71.8°F22.1°C 61.9°F16.6°C 71% 6.0 mph SSW9.7 kmh SSW 12.1 mph19.5 kmh 29.90 in1012.5 mb 0.00 in0.0 mm 0.00 in0.0 mm 0.00 in0.0 mm
03:15 PM 72.4°F22.4°C 62.4°F16.9°C 71% 10.0 mph SSW16.1 kmh SSW 15.1 mph24.3 kmh 29.90 in1012.5 mb 0.00 in0.0 mm 0.00 in0.0 mm 0.00 in0.0 mm
03:30 PM 71.7°F22.1°C 62.6°F17.0°C 73% 4.0 mph S6.4 kmh S 9.1 mph14.6 kmh 29.90 in1012.5 mb 0.00 in0.0 mm 0.00 in0.0 mm 0.00 in0.0 mm
03:45 PM 71.7°F22.1°C 62.9°F17.2°C 74% 5.0 mph SSW8.0 kmh SSW 9.1 mph14.6 kmh 29.89 in1012.2 mb 0.00 in0.0 mm 0.00 in0.0 mm 0.00 in0.0 mm
04:00 PM 71.4°F21.9°C 63.0°F17.2°C 75% 1.0 mph S1.6 kmh S 5.1 mph8.2 kmh 29.89 in1012.2 mb 0.00 in0.0 mm 0.00 in0.0 mm 0.00 in0.0 mm
04:15 PM 71.3°F21.8°C 63.7°F17.6°C 77% 9.0 mph SSW14.5 kmh SSW 9.1 mph14.6 kmh 29.89 in1012.2 mb 0.00 in0.0 mm 0.00 in0.0 mm 0.00 in0.0 mm
04:30 PM 71.3°F21.8°C 63.7°F17.6°C 77% 11.0 mph SSW17.7 kmh SSW 11.1 mph17.9 kmh 29.87 in1011.5 mb 0.00 in0.0 mm 0.00 in0.0 mm 0.00 in0.0 mm
04:45 PM 71.2°F21.8°C 63.6°F17.6°C 77% 4.0 mph SSE6.4 kmh SSE 12.1 mph19.5 kmh 29.86 in1011.2 mb 0.00 in0.0 mm 0.00 in0.0 mm 0.00 in0.0 mm
05:00 PM 71.1°F21.7°C 63.9°F17.7°C 78% 4.0 mph SW6.4 kmh SW 8.1 mph13.0 kmh 29.86 in1011.2 mb 0.00 in0.0 mm 0.00 in0.0 mm 0.00 in0.0 mm
05:15 PM 71.1°F21.7°C 63.9°F17.7°C 78% 5.0 mph SSW8.0 kmh SSW 13.1 mph21.1 kmh 29.86 in1011.2 mb 0.00 in0.0 mm 0.00 in0.0 mm 0.00 in0.0 mm
05:30 PM 70.8°F21.6°C 63.9°F17.7°C 79% 4.0 mph SSE6.4 kmh SSE 12.1 mph19.5 kmh 29.85 in1010.8 mb 0.00 in0.0 mm 0.00 in0.0 mm 0.00 in0.0 mm
05:45 PM 70.4°F21.3°C 63.9°F17.7°C 80% 3.0 mph S4.8 kmh S 10.1 mph16.3 kmh 29.85 in1010.8 mb 0.00 in0.0 mm 0.00 in0.0 mm 0.00 in0.0 mm
06:00 PM 69.9°F21.1°C 64.1°F17.8°C 82% 4.0 mph S6.4 kmh S 5.1 mph8.2 kmh 29.86 in1011.2 mb 0.00 in0.0 mm 0.00 in0.0 mm 0.00 in0.0 mm
06:15 PM 69.5°F20.8°C 64.1°F17.8°C 83% 6.0 mph SSW9.7 kmh SSW 7.1 mph11.4 kmh 29.86 in1011.2 mb 0.00 in0.0 mm 0.00 in0.0 mm 0.00 in0.0 mm
06:30 PM 69.1°F20.6°C 63.8°F17.7°C 83% 3.0 mph SSW4.8 kmh SSW 8.1 mph13.0 kmh 29.86 in1011.2 mb 0.00 in0.0 mm 0.00 in0.0 mm 0.00 in0.0 mm
06:45 PM 68.7°F20.4°C 63.7°F17.6°C 84% 3.0 mph SSW4.8 kmh SSW 6.1 mph9.8 kmh 29.84 in1010.5 mb 0.00 in0.0 mm 0.00 in0.0 mm 0.00 in0.0 mm
07:00 PM 68.7°F20.4°C 64.1°F17.8°C 85% 3.0 mph S4.8 kmh S 10.1 mph16.3 kmh 29.84 in1010.5 mb 0.00 in0.0 mm 0.00 in0.0 mm 0.00 in0.0 mm
07:15 PM 68.7°F20.4°C 64.1°F17.8°C 85% 4.0 mph SSE6.4 kmh SSE 8.1 mph13.0 kmh 29.83 in1010.2 mb 0.00 in0.0 mm 0.00 in0.0 mm 0.00 in0.0 mm
07:30 PM 68.8°F20.4°C 64.2°F17.9°C 85% 4.0 mph S6.4 kmh S 10.1 mph16.3 kmh 29.82 in1009.8 mb 0.00 in0.0 mm 0.00 in0.0 mm 0.00 in0.0 mm
07:45 PM 69.0°F20.6°C 64.0°F17.8°C 84% 4.0 mph SE6.4 kmh SE 9.1 mph14.6 kmh 29.82 in1009.8 mb 0.00 in0.0 mm 0.00 in0.0 mm 0.00 in0.0 mm
08:00 PM 69.2°F20.7°C 64.2°F17.9°C 84% 6.0 mph S9.7 kmh S 13.1 mph21.1 kmh 29.82 in1009.8 mb 0.00 in0.0 mm 0.00 in0.0 mm 0.00 in0.0 mm
08:15 PM 69.0°F20.6°C 64.0°F17.8°C 84% 12.0 mph S19.3 kmh S 12.1 mph19.5 kmh 29.82 in1009.8 mb 0.00 in0.0 mm 0.00 in0.0 mm 0.00 in0.0 mm
08:30 PM 69.0°F20.6°C 64.0°F17.8°C 84% 5.0 mph SSE8.0 kmh SSE 14.1 mph22.7 kmh 29.81 in1009.5 mb 0.00 in0.0 mm 0.00 in0.0 mm 0.00 in0.0 mm
08:45 PM 69.5°F20.8°C 64.4°F18.0°C 84% 2.0 mph SE3.2 kmh SE 12.1 mph19.5 kmh 29.81 in1009.5 mb 0.00 in0.0 mm 0.00 in0.0 mm 0.00 in0.0 mm
09:00 PM 69.6°F20.9°C 64.5°F18.1°C 84% 8.0 mph S12.9 kmh S 10.1 mph16.3 kmh 29.81 in1009.5 mb 0.00 in0.0 mm 0.00 in0.0 mm 0.00 in0.0 mm
09:15 PM 69.9°F21.1°C 64.5°F18.1°C 83% 10.0 mph S16.1 kmh S 10.1 mph16.3 kmh 29.81 in1009.5 mb 0.00 in0.0 mm 0.00 in0.0 mm 0.00 in0.0 mm
09:30 PM 69.0°F20.6°C 65.0°F18.3°C 87% 12.0 mph SSW19.3 kmh SSW 16.2 mph26.1 kmh 29.82 in1009.8 mb 0.00 in0.0 mm 0.00 in0.0 mm 0.00 in0.0 mm
09:45 PM 67.5°F19.7°C 65.1°F18.4°C 92% 2.0 mph S3.2 kmh S 11.1 mph17.9 kmh 29.81 in1009.5 mb 0.02 in0.5 mm 0.08 in2.0 mm 0.02 in0.5 mm
10:00 PM 67.0°F19.4°C 65.0°F18.3°C 93% 2.0 mph S3.2 kmh S 7.1 mph11.4 kmh 29.80 in1009.1 mb 0.02 in0.5 mm 0.00 in0.0 mm 0.02 in0.5 mm
10:15 PM 66.9°F19.4°C 64.9°F18.3°C 93% 3.0 mph SSW4.8 kmh SSW 7.1 mph11.4 kmh 29.79 in1008.8 mb 0.02 in0.5 mm 0.00 in0.0 mm 0.02 in0.5 mm
10:30 PM 67.2°F19.6°C 64.8°F18.2°C 92% 7.0 mph S11.3 kmh S 11.1 mph17.9 kmh 29.79 in1008.8 mb 0.02 in0.5 mm 0.00 in0.0 mm 0.02 in0.5 mm
11:15 PM 69.0°F20.6°C 65.4°F18.6°C 88% 17.0 mph SW27.4 kmh SW 19.2 mph30.9 kmh 29.75 in1007.5 mb 0.00 in0.0 mm 0.00 in0.0 mm 0.02 in0.5 mm